CFG2038 KACK-KJFK
Flight info
| Callsign | CFG2038 |
|---|---|
| Flight time | 0h 39m |
| Altitude | 28000 |
| Route | DCT MVY DCT JAWZZ Q220 SEY PARCH3 |
| Aircraft | A20N/M-SDE2E3FGHIRWXY/LB1 |
Departure
| Time | 2026-05-04 20:33 |
|---|---|
| Airport | Nantucket Memorial Airport (KACK) |
Arrival
| Time | 2026-05-04 21:13 |
|---|---|
| Airport | John F. Kennedy International Airport (KJFK) |
| Time | Latitude | Longitude | Altitude | Speed | Heading |
|---|---|---|---|---|---|
| 2026-05-04 20:18 | 41.25803 | -70.06388 | 52 ft | 0 kts | 224° |
| 2026-05-04 20:25 | 41.25808 | -70.06381 | 49 ft | 3 kts | 225° |
| 2026-05-04 20:25 | 41.25826 | -70.06354 | 49 ft | 3 kts | 230° |
| 2026-05-04 20:26 | 41.25843 | -70.06332 | 51 ft | 3 kts | 172° |
| 2026-05-04 20:26 | 41.25844 | -70.06326 | 52 ft | 1 kts | 105° |
| 2026-05-04 20:29 | 41.25842 | -70.06323 | 49 ft | 3 kts | 115° |
| 2026-05-04 20:30 | 41.25821 | -70.06262 | 49 ft | 10 kts | 118° |
| 2026-05-04 20:30 | 41.25760 | -70.06179 | 53 ft | 14 kts | 136° |
| 2026-05-04 20:30 | 41.25727 | -70.06101 | 53 ft | 6 kts | 64° |
| 2026-05-04 20:30 | 41.25766 | -70.06054 | 49 ft | 9 kts | 47° |
| 2026-05-04 20:31 | 41.25818 | -70.05980 | 52 ft | 13 kts | 47° |
| 2026-05-04 20:31 | 41.25887 | -70.05881 | 52 ft | 16 kts | 47° |
| 2026-05-04 20:31 | 41.25940 | -70.05810 | 54 ft | 2 kts | 44° |
| 2026-05-04 20:31 | 41.25964 | -70.05778 | 55 ft | 7 kts | 44° |
| 2026-05-04 20:32 | 41.25967 | -70.05705 | 51 ft | 10 kts | 122° |
| 2026-05-04 20:32 | 41.25895 | -70.05672 | 52 ft | 13 kts | 197° |
| 2026-05-04 20:32 | 41.25878 | -70.05690 | 53 ft | 5 kts | 230° |
| 2026-05-04 20:32 | 41.25638 | -70.06006 | 51 ft | 93 kts | 225° |
| 2026-05-04 20:33 | 41.25027 | -70.06806 | 300 ft | 141 kts | 226° |
| 2026-05-04 20:33 | 41.24311 | -70.07790 | 1137 ft | 155 kts | 227° |
| 2026-05-04 20:33 | 41.23606 | -70.08802 | 1898 ft | 150 kts | 235° |
| 2026-05-04 20:33 | 41.22894 | -70.10016 | 2018 ft | 179 kts | 238° |
| 2026-05-04 20:34 | 41.22455 | -70.11677 | 2004 ft | 199 kts | 254° |
| 2026-05-04 20:34 | 41.22184 | -70.13521 | 2009 ft | 217 kts | 256° |
| 2026-05-04 20:34 | 41.21896 | -70.15517 | 2005 ft | 220 kts | 256° |
| 2026-05-04 20:34 | 41.21617 | -70.17514 | 2076 ft | 221 kts | 259° |
| 2026-05-04 20:35 | 41.21851 | -70.19584 | 2409 ft | 240 kts | 286° |
| 2026-05-04 20:35 | 41.22712 | -70.21526 | 3456 ft | 244 kts | 297° |
| 2026-05-04 20:35 | 41.23677 | -70.23356 | 4760 ft | 240 kts | 297° |
| 2026-05-04 20:35 | 41.24605 | -70.25212 | 5881 ft | 242 kts | 296° |
| 2026-05-04 20:36 | 41.25483 | -70.27131 | 6907 ft | 245 kts | 295° |
| 2026-05-04 20:36 | 41.26338 | -70.29117 | 7891 ft | 250 kts | 295° |
| 2026-05-04 20:36 | 41.27187 | -70.31152 | 8916 ft | 254 kts | 295° |
| 2026-05-04 20:36 | 41.28060 | -70.33271 | 9911 ft | 260 kts | 296° |
| 2026-05-04 20:37 | 41.28935 | -70.35396 | 10564 ft | 276 kts | 296° |
| 2026-05-04 20:37 | 41.29894 | -70.37727 | 10946 ft | 299 kts | 296° |
| 2026-05-04 20:37 | 41.30927 | -70.40229 | 11476 ft | 315 kts | 296° |
| 2026-05-04 20:37 | 41.31988 | -70.42790 | 12368 ft | 319 kts | 296° |
| 2026-05-04 20:38 | 41.33072 | -70.45407 | 13235 ft | 324 kts | 297° |
| 2026-05-04 20:38 | 41.34164 | -70.48050 | 14067 ft | 329 kts | 297° |
| 2026-05-04 20:38 | 41.35271 | -70.50731 | 14885 ft | 332 kts | 297° |
| 2026-05-04 20:38 | 41.36387 | -70.53438 | 15698 ft | 335 kts | 297° |
| 2026-05-04 20:39 | 41.37515 | -70.56176 | 16503 ft | 339 kts | 297° |
| 2026-05-04 20:39 | 41.38598 | -70.58965 | 17306 ft | 341 kts | 292° |
| 2026-05-04 20:39 | 41.39357 | -70.61972 | 18089 ft | 344 kts | 283° |
| 2026-05-04 20:39 | 41.39725 | -70.65133 | 18790 ft | 348 kts | 275° |
| 2026-05-04 20:40 | 41.39803 | -70.68370 | 19445 ft | 352 kts | 273° |
| 2026-05-04 20:40 | 41.39881 | -70.71623 | 20092 ft | 355 kts | 273° |
| 2026-05-04 20:40 | 41.39969 | -70.74957 | 20750 ft | 359 kts | 274° |
| 2026-05-04 20:40 | 41.40058 | -70.78292 | 21386 ft | 363 kts | 274° |
| 2026-05-04 20:41 | 41.40059 | -70.81657 | 21820 ft | 368 kts | 268° |
| 2026-05-04 20:41 | 41.39690 | -70.85056 | 21944 ft | 372 kts | 260° |
| 2026-05-04 20:41 | 41.38934 | -70.88361 | 21960 ft | 375 kts | 252° |
| 2026-05-04 20:41 | 41.37906 | -70.91561 | 21945 ft | 376 kts | 250° |
| 2026-05-04 20:42 | 41.36877 | -70.94765 | 21944 ft | 376 kts | 251° |
| 2026-05-04 20:42 | 41.35872 | -70.97924 | 21943 ft | 376 kts | 251° |
| 2026-05-04 20:42 | 41.34839 | -71.01174 | 21948 ft | 376 kts | 251° |
| 2026-05-04 20:42 | 41.33822 | -71.04371 | 21946 ft | 376 kts | 251° |
| 2026-05-04 20:43 | 41.32802 | -71.07573 | 21950 ft | 376 kts | 251° |
| 2026-05-04 20:43 | 41.31781 | -71.10776 | 21951 ft | 376 kts | 251° |
| 2026-05-04 20:43 | 41.30759 | -71.13975 | 21944 ft | 376 kts | 251° |
| 2026-05-04 20:43 | 41.29737 | -71.17173 | 21949 ft | 376 kts | 251° |
| 2026-05-04 20:44 | 41.28713 | -71.20373 | 21959 ft | 376 kts | 251° |
| 2026-05-04 20:44 | 41.27685 | -71.23582 | 21944 ft | 376 kts | 251° |
| 2026-05-04 20:44 | 41.26661 | -71.26773 | 21941 ft | 376 kts | 251° |
| 2026-05-04 20:44 | 41.25636 | -71.29968 | 21944 ft | 376 kts | 251° |
| 2026-05-04 20:45 | 41.24610 | -71.33168 | 21955 ft | 376 kts | 251° |
| 2026-05-04 20:45 | 41.23589 | -71.36352 | 21951 ft | 376 kts | 251° |
| 2026-05-04 20:45 | 41.22556 | -71.39569 | 21954 ft | 376 kts | 251° |
| 2026-05-04 20:45 | 41.21529 | -71.42762 | 21957 ft | 377 kts | 251° |
| 2026-05-04 20:46 | 41.20498 | -71.45965 | 21947 ft | 377 kts | 251° |
| 2026-05-04 20:46 | 41.19469 | -71.49156 | 21955 ft | 377 kts | 251° |
| 2026-05-04 20:46 | 41.18435 | -71.52359 | 21958 ft | 377 kts | 251° |
| 2026-05-04 20:46 | 41.17418 | -71.55559 | 21949 ft | 376 kts | 253° |
| 2026-05-04 20:47 | 41.16638 | -71.58851 | 21948 ft | 373 kts | 259° |
| 2026-05-04 20:47 | 41.16156 | -71.62228 | 21947 ft | 371 kts | 264° |
| 2026-05-04 20:47 | 41.15754 | -71.65601 | 21952 ft | 371 kts | 264° |
| 2026-05-04 20:47 | 41.15341 | -71.68987 | 21947 ft | 371 kts | 264° |
| 2026-05-04 20:48 | 41.14928 | -71.72329 | 21950 ft | 371 kts | 264° |
| 2026-05-04 20:48 | 41.14503 | -71.75742 | 21959 ft | 371 kts | 264° |
| 2026-05-04 20:48 | 41.14086 | -71.79085 | 21950 ft | 371 kts | 264° |
| 2026-05-04 20:48 | 41.13659 | -71.82501 | 21952 ft | 371 kts | 264° |
| 2026-05-04 20:49 | 41.13235 | -71.85890 | 21957 ft | 372 kts | 264° |
| 2026-05-04 20:49 | 41.12811 | -71.89268 | 21950 ft | 372 kts | 264° |
| 2026-05-04 20:49 | 41.12386 | -71.92648 | 21949 ft | 371 kts | 264° |
| 2026-05-04 20:49 | 41.11966 | -71.95979 | 21891 ft | 372 kts | 264° |
| 2026-05-04 20:50 | 41.11533 | -71.99401 | 21635 ft | 371 kts | 263° |
| 2026-05-04 20:50 | 41.11108 | -72.02763 | 21439 ft | 372 kts | 263° |
| 2026-05-04 20:50 | 41.10683 | -72.06108 | 21571 ft | 372 kts | 263° |
| 2026-05-04 20:50 | 41.10253 | -72.09482 | 21426 ft | 370 kts | 263° |
| 2026-05-04 20:51 | 41.09726 | -72.12816 | 21176 ft | 370 kts | 258° |
| 2026-05-04 20:51 | 41.08946 | -72.16052 | 20917 ft | 369 kts | 255° |
| 2026-05-04 20:51 | 41.08139 | -72.19280 | 20652 ft | 367 kts | 255° |
| 2026-05-04 20:51 | 41.07343 | -72.22491 | 20398 ft | 366 kts | 255° |
| 2026-05-04 20:52 | 41.06555 | -72.25678 | 20147 ft | 365 kts | 255° |
| 2026-05-04 20:52 | 41.05764 | -72.28873 | 19790 ft | 364 kts | 255° |
| 2026-05-04 20:52 | 41.04973 | -72.32067 | 19248 ft | 364 kts | 255° |
| 2026-05-04 20:52 | 41.04185 | -72.35238 | 18706 ft | 361 kts | 255° |
| 2026-05-04 20:53 | 41.03403 | -72.38380 | 18132 ft | 358 kts | 254° |
| 2026-05-04 20:53 | 41.02630 | -72.41479 | 17578 ft | 353 kts | 254° |
| 2026-05-04 20:53 | 41.01864 | -72.44548 | 17089 ft | 347 kts | 254° |
| 2026-05-04 20:53 | 41.01111 | -72.47556 | 16579 ft | 342 kts | 254° |
| 2026-05-04 20:54 | 41.00376 | -72.50494 | 16077 ft | 338 kts | 254° |
| 2026-05-04 20:54 | 40.99644 | -72.53423 | 15566 ft | 335 kts | 253° |
| 2026-05-04 20:54 | 40.98918 | -72.56320 | 15007 ft | 333 kts | 253° |
| 2026-05-04 20:54 | 40.98186 | -72.59235 | 14540 ft | 329 kts | 253° |
| 2026-05-04 20:55 | 40.97465 | -72.62105 | 13998 ft | 328 kts | 253° |
| 2026-05-04 20:55 | 40.96748 | -72.64957 | 13491 ft | 324 kts | 253° |
| 2026-05-04 20:55 | 40.96040 | -72.67761 | 12986 ft | 321 kts | 253° |
| 2026-05-04 20:55 | 40.95334 | -72.70556 | 12488 ft | 317 kts | 253° |
| 2026-05-04 20:56 | 40.94650 | -72.73246 | 12274 ft | 306 kts | 253° |
| 2026-05-04 20:56 | 40.94088 | -72.75457 | 12167 ft | 294 kts | 253° |
| 2026-05-04 20:56 | 40.93425 | -72.77956 | 12035 ft | 281 kts | 248° |
| 2026-05-04 20:56 | 40.92415 | -72.80116 | 11930 ft | 276 kts | 233° |
| 2026-05-04 20:57 | 40.91487 | -72.81325 | 11801 ft | 280 kts | 223° |
| 2026-05-04 20:57 | 40.89891 | -72.82867 | 11555 ft | 295 kts | 220° |
| 2026-05-04 20:57 | 40.88165 | -72.84517 | 11513 ft | 313 kts | 220° |
| 2026-05-04 20:57 | 40.86417 | -72.86184 | 11477 ft | 313 kts | 219° |
| 2026-05-04 20:58 | 40.84670 | -72.87847 | 11417 ft | 305 kts | 220° |
| 2026-05-04 20:58 | 40.82987 | -72.89451 | 11289 ft | 290 kts | 220° |
| 2026-05-04 20:58 | 40.81389 | -72.90972 | 10973 ft | 278 kts | 220° |
| 2026-05-04 20:58 | 40.79831 | -72.92463 | 10413 ft | 276 kts | 220° |
| 2026-05-04 20:59 | 40.78284 | -72.93948 | 9874 ft | 275 kts | 220° |
| 2026-05-04 20:59 | 40.76747 | -72.95422 | 9404 ft | 273 kts | 220° |
| 2026-05-04 20:59 | 40.75211 | -72.96890 | 8922 ft | 271 kts | 220° |
| 2026-05-04 20:59 | 40.73695 | -72.98339 | 8434 ft | 269 kts | 220° |
| 2026-05-04 21:00 | 40.72181 | -72.99786 | 7945 ft | 268 kts | 220° |
| 2026-05-04 21:00 | 40.70682 | -73.01215 | 7510 ft | 265 kts | 220° |
| 2026-05-04 21:00 | 40.69329 | -73.02808 | 7035 ft | 258 kts | 237° |
| 2026-05-04 21:00 | 40.68620 | -73.04924 | 6587 ft | 251 kts | 262° |
| 2026-05-04 21:01 | 40.68571 | -73.07194 | 6385 ft | 250 kts | 271° |
| 2026-05-04 21:01 | 40.68598 | -73.09493 | 6270 ft | 251 kts | 271° |
| 2026-05-04 21:01 | 40.68612 | -73.11784 | 6148 ft | 249 kts | 271° |
| 2026-05-04 21:01 | 40.68622 | -73.14063 | 6039 ft | 250 kts | 270° |
| 2026-05-04 21:02 | 40.68633 | -73.16349 | 5933 ft | 249 kts | 270° |
| 2026-05-04 21:02 | 40.68644 | -73.18628 | 5800 ft | 248 kts | 270° |
| 2026-05-04 21:02 | 40.68653 | -73.20901 | 5693 ft | 248 kts | 270° |
| 2026-05-04 21:02 | 40.68663 | -73.23164 | 5568 ft | 246 kts | 270° |
| 2026-05-04 21:03 | 40.68673 | -73.25416 | 5455 ft | 246 kts | 270° |
| 2026-05-04 21:03 | 40.68682 | -73.27677 | 5342 ft | 247 kts | 269° |
| 2026-05-04 21:03 | 40.68690 | -73.29933 | 5234 ft | 246 kts | 269° |
| 2026-05-04 21:03 | 40.68697 | -73.32186 | 5109 ft | 245 kts | 269° |
| 2026-05-04 21:04 | 40.68706 | -73.34430 | 4996 ft | 246 kts | 269° |
| 2026-05-04 21:04 | 40.68955 | -73.36651 | 4882 ft | 248 kts | 289° |
| 2026-05-04 21:04 | 40.69737 | -73.38563 | 4783 ft | 251 kts | 299° |
| 2026-05-04 21:04 | 40.70698 | -73.40488 | 4665 ft | 251 kts | 299° |
| 2026-05-04 21:05 | 40.71624 | -73.42441 | 4536 ft | 252 kts | 297° |
| 2026-05-04 21:05 | 40.72488 | -73.44452 | 4323 ft | 251 kts | 295° |
| 2026-05-04 21:05 | 40.73298 | -73.46484 | 4099 ft | 251 kts | 294° |
| 2026-05-04 21:05 | 40.74083 | -73.48532 | 3864 ft | 250 kts | 293° |
| 2026-05-04 21:06 | 40.74854 | -73.50580 | 3625 ft | 249 kts | 293° |
| 2026-05-04 21:06 | 40.75618 | -73.52618 | 3314 ft | 248 kts | 293° |
| 2026-05-04 21:06 | 40.76377 | -73.54644 | 3038 ft | 240 kts | 293° |
| 2026-05-04 21:06 | 40.77088 | -73.56534 | 2913 ft | 227 kts | 293° |
| 2026-05-04 21:07 | 40.77775 | -73.58357 | 2668 ft | 218 kts | 293° |
| 2026-05-04 21:07 | 40.78443 | -73.60139 | 2240 ft | 216 kts | 292° |
| 2026-05-04 21:07 | 40.78953 | -73.62005 | 2048 ft | 213 kts | 271° |
| 2026-05-04 21:07 | 40.78629 | -73.63769 | 2010 ft | 189 kts | 236° |
| 2026-05-04 21:08 | 40.77815 | -73.64955 | 1993 ft | 183 kts | 219° |
| 2026-05-04 21:08 | 40.76767 | -73.65903 | 2019 ft | 175 kts | 212° |
| 2026-05-04 21:08 | 40.75782 | -73.66642 | 2016 ft | 155 kts | 212° |
| 2026-05-04 21:08 | 40.74874 | -73.67351 | 2029 ft | 148 kts | 212° |
| 2026-05-04 21:09 | 40.74053 | -73.67993 | 2018 ft | 130 kts | 214° |
| 2026-05-04 21:09 | 40.73314 | -73.68579 | 1998 ft | 125 kts | 213° |
| 2026-05-04 21:09 | 40.72561 | -73.69167 | 1853 ft | 125 kts | 213° |
| 2026-05-04 21:09 | 40.71823 | -73.69747 | 1686 ft | 124 kts | 213° |
| 2026-05-04 21:10 | 40.71078 | -73.70335 | 1525 ft | 126 kts | 212° |
| 2026-05-04 21:10 | 40.70341 | -73.70913 | 1350 ft | 121 kts | 212° |
| 2026-05-04 21:10 | 40.69613 | -73.71482 | 1192 ft | 122 kts | 211° |
| 2026-05-04 21:10 | 40.68885 | -73.72055 | 1030 ft | 122 kts | 211° |
| 2026-05-04 21:11 | 40.68238 | -73.72564 | 884 ft | 120 kts | 210° |
| 2026-05-04 21:11 | 40.67511 | -73.73135 | 724 ft | 120 kts | 209° |
| 2026-05-04 21:11 | 40.66817 | -73.73680 | 572 ft | 117 kts | 207° |
| 2026-05-04 21:11 | 40.66103 | -73.74240 | 407 ft | 120 kts | 207° |
| 2026-05-04 21:12 | 40.65387 | -73.74803 | 247 ft | 120 kts | 206° |
| 2026-05-04 21:12 | 40.64694 | -73.75360 | 115 ft | 113 kts | 205° |
| 2026-05-04 21:12 | 40.64006 | -73.75897 | 29 ft | 115 kts | 206° |
| 2026-05-04 21:12 | 40.63433 | -73.76331 | 25 ft | 67 kts | 208° |
| 2026-05-04 21:13 | 40.63253 | -73.76597 | 20 ft | 19 kts | 240° |
| 2026-05-04 21:13 | 40.63257 | -73.76759 | 20 ft | 19 kts | 298° |
| 2026-05-04 21:13 | 40.63332 | -73.76927 | 20 ft | 23 kts | 302° |
| 2026-05-04 21:13 | 40.63421 | -73.77121 | 20 ft | 26 kts | 301° |
| 2026-05-04 21:14 | 40.63516 | -73.77328 | 20 ft | 26 kts | 301° |
| 2026-05-04 21:14 | 40.63606 | -73.77530 | 21 ft | 10 kts | 301° |
| 2026-05-04 21:14 | 40.63617 | -73.77616 | 20 ft | 12 kts | 239° |
| 2026-05-04 21:14 | 40.63543 | -73.77679 | 20 ft | 13 kts | 214° |
| 2026-05-04 21:15 | 40.63523 | -73.77794 | 22 ft | 15 kts | 255° |
| 2026-05-04 21:15 | 40.63446 | -73.77879 | 20 ft | 15 kts | 219° |
| 2026-05-04 21:15 | 40.63407 | -73.78008 | 20 ft | 17 kts | 276° |
| 2026-05-04 21:15 | 40.63463 | -73.78158 | 21 ft | 20 kts | 301° |
| 2026-05-04 21:16 | 40.63540 | -73.78329 | 21 ft | 23 kts | 303° |
| 2026-05-04 21:16 | 40.63679 | -73.78356 | 20 ft | 21 kts | 347° |
| 2026-05-04 21:16 | 40.63835 | -73.78373 | 22 ft | 19 kts | 350° |
| 2026-05-04 21:16 | 40.63861 | -73.78414 | 20 ft | 7 kts | 288° |
| 2026-05-04 21:17 | 40.63850 | -73.78486 | 20 ft | 5 kts | 250° |
| 2026-05-04 21:17 | 40.63848 | -73.78494 | 20 ft | 0 kts | 251° |
| 2026-05-04 21:17 | 40.63848 | -73.78497 | 20 ft | 0 kts | 251° |